Aérodrome :
LOGIN :

S'inscrire | Disclaimer

   EN    FR    IT 

 










Légende :    VFR   VFR Marginal   IFR   IFR Intensif   IFR Très Intensif
Visi : 
Plafond : 
>= 8 km
>= 3000ft
5 à 8 km
1000 à 3000 ft
1500m à 5 km
500 à 1000 ft
800 à 1500m
200 à 500 ft
< 800m
< 200 ft
Symboles :   Orages  Brouillard  Fortes neiges  Fortes précipitations  Vent > 20 kt
SIGMETs :   Divers  Orages  Givrage  Turbulence  Onde Orograph.  Cendres Volcan.







- Altitude de l'aérodrome : 28 ft
- Code IATA : SOZ
- Voir les cartes d'approche


LFKS - Solenzara

DERNIER METAR :
  • 192030Z AUTO 27006KT 240V300 CAVOK 13/09 Q1013

METARs EXPIRÉS :
  • 192000Z AUTO 27006KT 230V300 CAVOK 13/09 Q1013
  • 191930Z AUTO 27004KT 210V330 9999 BKN100/// OVC120/// ///CB 13/09 Q1012
  • 191900Z AUTO 29008KT 220V340 8000 RA FEW039/// BKN066/// OVC076/// ///CB 14/09 Q1013
  • 191830Z AUTO 30005KT 220V360 9999 -RA VCTS BKN082/// OVC100/// ///CB 17/09 Q1013
  • 191800Z AUTO 35006KT 280V020 9999 VCTS BKN100/// OVC120/// ///CB 18/10 Q1012
  • 191730Z AUTO 36010KT 330V040 9999 ///CB 19/09 Q1011

TAF TAF LFKS
Valide du 19 à 15h jusqu'au 20 à 15h UTC


191400Z 1915/2015 08010KT 9999 FEW040 SCT100 BKN180
BECMG 1916/1918 27005KT
Pas de NOTAMs connus pour ce terrain.
2 SIGMETs publiés pour la FIR Marseille (LFMM) :
 
Turbulence forte
LFMM SIGMET 13 VALID 192000/200000 LFPW
LFMM MARSEILLE FIR/UIR SEV TURB FCST WI N4300 E00500 - N4330 E00500 - N4145 E00715 - N4130 E00645 SFC/FL050 STNR WKN=
Turbulence forte
LFMM SIGMET 12 VALID 192000/200000 LFPW
LFMM MARSEILLE FIR/UIR SEV TURB FCST WI N4115 E00915 - N4115 E00800 - N4100 E00800 - N4330 E00545 - N4345 E00700 FL200/320 MOV E 30KT WKN=



MET'MAP, la Météo Aéronautique d'un coup d'oeil ! - Copyright ORBIFLY Décembre 2007 - Disclaimer

ORBIFLY MET'MAP TEAM :

Programmation & Développement : Alexandra Zaïnal
Conception & Développement : Baudouin d'Aumeries
Co-Programmation & Développement : Marc-Olivier Méhu
Soutien technique & logistique : Manuel Goepfert

Contact : metmap@orbifly.com




SOURCES & CREDITS :

   NOAA